Time;durP1;ratioP1;P1;durP2;ratioP2;P2;SDS_P1;SDS_P2;PMS_P1;PMS_P2;Temp;Humidity;BMP_temperature;BMP_pressure;BME280_temperature;BME280_humidity;BME280_pressure;Samples;Min_cycle;Max_cycle;Signal;HPM_P1;HPM_P2
2022/10/09 00:00:36;;;;;;;6.53;2.80;;;8.10;99.90;;;;;;5074421;28;20055;-68
2022/10/09 00:03:02;;;;;;;5.78;2.90;;;8.10;99.90;;;;;;5071431;28;20113;-68
2022/10/09 00:05:28;;;;;;;3.85;2.70;;;8.00;99.90;;;;;;5071928;28;20103;-69
2022/10/09 00:07:54;;;;;;;5.20;3.05;;;8.00;99.90;;;;;;5073026;28;20048;-69
2022/10/09 00:10:20;;;;;;;5.47;2.95;;;7.90;99.90;;;;;;5085526;28;20087;-68
2022/10/09 00:12:46;;;;;;;4.85;2.92;;;7.90;99.90;;;;;;5073386;28;20044;-68
2022/10/09 00:15:12;;;;;;;4.35;2.80;;;7.90;99.90;;;;;;5079878;28;20507;-68
2022/10/09 00:17:38;;;;;;;4.22;2.50;;;7.80;99.90;;;;;;5087548;28;20051;-68
2022/10/09 00:20:04;;;;;;;5.88;2.55;;;7.70;99.90;;;;;;5082498;28;20044;-68
2022/10/09 00:22:30;;;;;;;5.43;2.60;;;7.70;99.90;;;;;;5071804;28;20059;-68
2022/10/09 00:24:55;;;;;;;4.32;2.75;;;7.70;99.90;;;;;;5088944;28;20050;-69
2022/10/09 00:27:22;;;;;;;5.93;2.80;;;7.60;99.90;;;;;;5078730;28;20044;-69
2022/10/09 00:29:48;;;;;;;4.85;2.60;;;7.60;99.90;;;;;;5072904;28;20048;-69
2022/10/09 00:32:14;;;;;;;6.35;2.83;;;7.50;99.90;;;;;;5079541;28;20512;-69
2022/10/09 00:34:40;;;;;;;4.82;2.50;;;7.50;99.90;;;;;;5071995;28;20044;-69
2022/10/09 00:37:06;;;;;;;6.45;2.67;;;7.50;99.90;;;;;;5071428;28;20040;-69
2022/10/09 00:39:31;;;;;;;6.47;2.88;;;7.50;99.90;;;;;;5071825;28;20078;-69
2022/10/09 00:41:57;;;;;;;5.97;2.90;;;7.50;99.90;;;;;;5070526;28;20141;-69
2022/10/09 00:44:45;;;;;;;6.65;2.72;;;7.50;99.90;;;;;;5053605;28;20048;-70
2022/10/09 00:47:35;;;;;;;5.00;2.80;;;7.40;99.90;;;;;;5075537;28;20048;-69
2022/10/09 00:50:10;;;;;;;5.00;2.47;;;7.40;99.90;;;;;;5071498;28;20052;-68
2022/10/09 00:52:36;;;;;;;5.82;2.63;;;7.40;99.90;;;;;;5073212;28;20060;-69
2022/10/09 00:55:04;;;;;;;6.60;3.05;;;7.40;99.90;;;;;;5080146;28;20501;-69
2022/10/09 00:57:33;;;;;;;6.68;2.80;;;7.40;99.90;;;;;;5058087;28;20048;-68
2022/10/09 01:00:02;;;;;;;4.90;2.65;;;7.40;99.90;;;;;;5069489;28;20093;-68
2022/10/09 01:02:28;;;;;;;7.72;3.20;;;7.40;99.90;;;;;;5075457;28;20379;-68
2022/10/09 01:04:54;;;;;;;4.75;2.65;;;7.30;99.90;;;;;;5071207;28;20060;-69
2022/10/09 01:07:54;;;;;;;4.35;2.60;;;7.30;99.90;;;;;;5081362;28;20415;-71
2022/10/09 01:10:34;;;;;;;6.32;2.70;;;7.40;99.90;;;;;;5071289;28;20052;-69
2022/10/09 01:13:16;;;;;;;5.55;2.60;;;7.30;99.90;;;;;;5071294;28;20052;-68
2022/10/09 01:16:05;;;;;;;6.13;2.40;;;7.30;99.90;;;;;;5069907;28;20044;-69
2022/10/09 01:19:08;;;;;;;7.72;2.40;;;7.40;99.90;;;;;;5069587;28;20048;-68
2022/10/09 01:22:02;;;;;;;5.10;2.50;;;7.30;99.90;;;;;;5021061;28;20443;-69
2022/10/09 01:24:40;;;;;;;5.07;2.60;;;7.30;99.90;;;;;;5070661;28;20123;-68
2022/10/09 01:27:11;;;;;;;6.47;2.53;;;7.30;99.90;;;;;;5062678;28;20088;-69
2022/10/09 01:29:45;;;;;;;4.68;2.58;;;7.30;99.90;;;;;;5084918;28;20044;-68
2022/10/09 01:32:15;;;;;;;4.75;2.40;;;7.30;99.90;;;;;;5066519;28;20461;-68
2022/10/09 01:34:43;;;;;;;5.75;2.90;;;7.20;99.90;;;;;;5077205;28;20043;-68
2022/10/09 01:37:11;;;;;;;7.32;2.70;;;7.30;99.90;;;;;;5078578;28;20040;-69
2022/10/09 01:39:37;;;;;;;5.97;2.80;;;7.30;99.90;;;;;;5070786;28;20497;-68
2022/10/09 01:42:04;;;;;;;5.32;2.80;;;7.30;99.90;;;;;;5081423;28;20083;-68
2022/10/09 01:44:32;;;;;;;5.05;3.00;;;7.20;99.90;;;;;;5070940;28;20048;-69
2022/10/09 01:46:58;;;;;;;4.88;2.72;;;7.20;99.90;;;;;;5070406;28;20105;-69
2022/10/09 01:49:33;;;;;;;5.88;2.65;;;7.20;99.90;;;;;;5070873;28;20083;-68
2022/10/09 01:52:01;;;;;;;4.70;2.70;;;7.20;99.90;;;;;;5070936;28;20049;-69
2022/10/09 01:54:59;;;;;;;6.20;2.45;;;7.20;99.90;;;;;;5070384;28;20048;-69
2022/10/09 01:57:56;;;;;;;4.18;2.83;;;7.10;99.90;;;;;;5067271;28;20053;-69
2022/10/09 02:00:23;;;;;;;4.68;2.65;;;7.20;99.90;;;;;;5070661;28;20102;-69
2022/10/09 02:02:50;;;;;;;5.03;2.55;;;7.10;99.90;;;;;;5070485;28;20140;-69
2022/10/09 02:05:24;;;;;;;5.88;2.83;;;7.10;99.90;;;;;;5077779;28;20400;-70
2022/10/09 02:07:51;;;;;;;5.70;2.95;;;7.00;99.90;;;;;;5056658;28;20040;-69
2022/10/09 02:10:18;;;;;;;6.53;2.90;;;7.00;99.90;;;;;;5069365;28;20515;-69
2022/10/09 02:12:49;;;;;;;5.65;3.17;;;7.00;99.90;;;;;;5070126;28;20063;-69
2022/10/09 02:15:15;;;;;;;3.90;2.67;;;7.00;99.90;;;;;;5069547;28;20098;-69
2022/10/09 02:17:47;;;;;;;6.53;2.97;;;6.90;99.90;;;;;;5084834;28;20094;-69
2022/10/09 02:20:20;;;;;;;6.72;2.97;;;6.90;99.90;;;;;;5072082;28;20140;-68
2022/10/09 02:22:47;;;;;;;4.07;2.67;;;6.90;99.90;;;;;;5078424;28;20426;-68
2022/10/09 02:25:14;;;;;;;4.70;2.90;;;6.90;99.90;;;;;;5081043;28;20534;-69
2022/10/09 02:27:40;;;;;;;6.63;2.90;;;6.90;99.90;;;;;;5089458;28;20052;-69
2022/10/09 02:30:08;;;;;;;5.63;3.00;;;7.00;99.90;;;;;;5073033;28;20080;-69
2022/10/09 02:32:34;;;;;;;4.68;2.95;;;6.90;99.90;;;;;;5084309;28;20093;-69
2022/10/09 02:35:00;;;;;;;3.92;2.35;;;6.90;99.90;;;;;;5082589;28;20413;-69
2022/10/09 02:37:25;;;;;;;4.03;2.78;;;6.90;99.90;;;;;;5073955;28;20070;-69
2022/10/09 02:39:51;;;;;;;5.43;2.80;;;7.00;99.90;;;;;;5074202;28;20579;-69
2022/10/09 02:42:17;;;;;;;4.88;2.67;;;6.80;99.90;;;;;;5072368;28;20055;-69
2022/10/09 02:44:42;;;;;;;4.10;2.88;;;6.80;99.90;;;;;;5074124;28;20048;-69
2022/10/09 02:47:08;;;;;;;3.53;2.30;;;6.80;99.90;;;;;;5073103;28;20048;-69
2022/10/09 02:49:34;;;;;;;4.55;2.95;;;6.70;99.90;;;;;;5072509;28;20045;-68
2022/10/09 02:51:59;;;;;;;4.68;2.63;;;6.70;99.90;;;;;;5087524;28;20601;-69
2022/10/09 02:54:25;;;;;;;4.20;2.40;;;6.50;99.90;;;;;;5086497;28;20071;-68
2022/10/09 02:56:51;;;;;;;7.72;2.90;;;6.60;99.90;;;;;;5072167;28;20429;-69
2022/10/09 02:59:16;;;;;;;7.65;3.10;;;6.50;99.90;;;;;;5073227;28;20052;-68
2022/10/09 03:01:42;;;;;;;5.18;2.85;;;6.30;99.90;;;;;;5073458;28;20052;-69
2022/10/09 03:04:08;;;;;;;5.30;2.88;;;6.30;99.90;;;;;;5074000;28;20101;-69
2022/10/09 03:06:34;;;;;;;5.40;3.10;;;6.30;99.90;;;;;;5092559;28;20484;-69
2022/10/09 03:08:59;;;;;;;5.00;2.65;;;6.30;99.90;;;;;;5089980;28;20405;-68
2022/10/09 03:11:25;;;;;;;3.85;2.42;;;6.30;99.90;;;;;;5073882;28;20048;-68
2022/10/09 03:13:53;;;;;;;4.68;3.30;;;6.30;99.90;;;;;;5093904;28;20044;-69
2022/10/09 03:16:21;;;;;;;4.68;2.95;;;6.80;99.90;;;;;;5086821;28;20052;-69
2022/10/09 03:18:48;;;;;;;3.70;2.58;;;6.30;99.90;;;;;;5080082;28;20434;-68
2022/10/09 03:21:20;;;;;;;5.97;3.72;;;6.30;99.90;;;;;;5084570;28;20056;-69
2022/10/09 03:23:46;;;;;;;5.25;3.45;;;6.30;99.90;;;;;;5073089;28;20043;-69
2022/10/09 03:26:14;;;;;;;9.00;3.67;;;6.30;99.90;;;;;;5068198;28;20044;-70
2022/10/09 03:28:42;;;;;;;5.22;3.20;;;6.30;99.90;;;;;;5077930;28;20143;-69
2022/10/09 03:31:09;;;;;;;6.15;3.45;;;6.30;99.90;;;;;;5075256;28;20137;-69
2022/10/09 03:33:35;;;;;;;5.10;3.40;;;6.30;99.90;;;;;;5082906;28;20494;-68
2022/10/09 03:36:02;;;;;;;5.25;3.10;;;6.30;99.90;;;;;;5083985;28;20048;-69
2022/10/09 03:38:28;;;;;;;7.20;3.10;;;6.30;99.90;;;;;;5081712;28;20143;-68
2022/10/09 03:40:54;;;;;;;6.70;3.63;;;6.20;99.90;;;;;;5075435;28;20125;-68
2022/10/09 03:43:19;;;;;;;4.68;3.17;;;6.30;99.90;;;;;;5075440;28;20048;-69
2022/10/09 03:45:45;;;;;;;5.70;3.40;;;6.20;99.90;;;;;;5072521;28;20051;-68
2022/10/09 03:48:12;;;;;;;6.43;3.38;;;6.20;99.90;;;;;;5072765;28;20146;-69
2022/10/09 03:50:38;;;;;;;5.90;3.78;;;6.30;99.90;;;;;;5081937;28;20067;-69
2022/10/09 03:53:05;;;;;;;5.03;3.50;;;6.30;99.90;;;;;;5073209;28;20121;-69
2022/10/09 03:55:31;;;;;;;8.07;3.80;;;6.30;99.90;;;;;;5085954;28;20129;-68
2022/10/09 03:57:57;;;;;;;4.45;3.22;;;6.50;99.90;;;;;;5092032;28;20183;-69
2022/10/09 04:00:23;;;;;;;7.70;4.15;;;6.30;99.90;;;;;;5073118;28;20536;-69
2022/10/09 04:02:49;;;;;;;5.97;3.72;;;6.20;99.90;;;;;;5072452;28;20052;-69
2022/10/09 04:05:15;;;;;;;5.63;3.63;;;6.30;99.90;;;;;;5080585;28;20052;-69
2022/10/09 04:07:40;;;;;;;5.95;3.78;;;6.30;99.90;;;;;;5077442;28;20125;-68
2022/10/09 04:10:06;;;;;;;6.63;3.90;;;6.30;99.90;;;;;;5074301;28;20446;-69
2022/10/09 04:12:32;;;;;;;4.88;3.45;;;6.40;99.90;;;;;;5085688;28;20041;-68
2022/10/09 04:14:57;;;;;;;6.18;3.78;;;6.40;99.90;;;;;;5070852;28;20512;-69
2022/10/09 04:17:23;;;;;;;5.95;3.83;;;6.40;99.90;;;;;;5072864;28;20052;-68
2022/10/09 04:19:49;;;;;;;4.80;3.42;;;6.70;99.90;;;;;;5072400;28;20396;-68
2022/10/09 04:22:14;;;;;;;5.45;4.07;;;6.40;99.90;;;;;;5072073;28;20470;-68
2022/10/09 04:24:40;;;;;;;4.55;3.60;;;6.40;99.90;;;;;;5069940;28;20584;-69
2022/10/09 04:27:06;;;;;;;7.03;3.40;;;6.30;99.90;;;;;;5085424;28;20541;-68
2022/10/09 04:29:31;;;;;;;4.50;3.20;;;6.30;99.90;;;;;;5090181;28;20054;-69
2022/10/09 04:31:57;;;;;;;6.00;3.08;;;6.30;99.90;;;;;;5084708;28;20098;-68
2022/10/09 04:34:22;;;;;;;5.78;3.42;;;6.30;99.90;;;;;;5063252;28;20052;-68
2022/10/09 04:36:48;;;;;;;5.05;3.00;;;6.20;99.90;;;;;;5074924;28;20127;-68
2022/10/09 04:39:14;;;;;;;7.15;3.10;;;6.20;99.90;;;;;;5071779;28;20504;-68
2022/10/09 04:41:39;;;;;;;7.57;3.78;;;6.30;99.90;;;;;;5071506;28;20511;-68
2022/10/09 04:44:05;;;;;;;5.22;3.28;;;6.30;99.90;;;;;;5075624;28;20538;-69
2022/10/09 04:46:31;;;;;;;6.68;3.45;;;6.40;99.90;;;;;;5088427;28;20055;-68
2022/10/09 04:48:56;;;;;;;3.15;2.35;;;6.50;99.90;;;;;;5070405;28;20573;-68
2022/10/09 04:51:22;;;;;;;5.25;2.80;;;6.40;99.90;;;;;;5071267;28;20413;-68
2022/10/09 04:53:48;;;;;;;5.22;2.90;;;6.40;99.90;;;;;;5090604;28;20481;-68
2022/10/09 04:56:18;;;;;;;4.40;2.95;;;6.30;99.90;;;;;;5071599;28;20048;-68
2022/10/09 04:58:45;;;;;;;7.22;3.58;;;6.40;99.90;;;;;;5080321;28;20044;-68
2022/10/09 05:01:20;;;;;;;6.85;3.42;;;6.40;99.90;;;;;;5070275;28;20060;-68
2022/10/09 05:03:46;;;;;;;6.65;3.65;;;6.40;99.90;;;;;;5071190;28;20080;-68
2022/10/09 05:06:12;;;;;;;7.90;3.67;;;6.50;99.90;;;;;;5084081;28;20106;-68
2022/10/09 05:08:39;;;;;;;6.20;3.53;;;6.40;99.90;;;;;;5077675;28;20040;-68
2022/10/09 05:11:10;;;;;;;5.97;3.67;;;6.40;99.90;;;;;;5071055;28;20049;-68
2022/10/09 05:13:39;;;;;;;4.30;3.08;;;6.40;99.90;;;;;;5070078;28;20078;-68
2022/10/09 05:16:08;;;;;;;5.28;3.08;;;6.50;99.90;;;;;;5090560;28;20086;-68
2022/10/09 05:18:35;;;;;;;4.32;3.08;;;6.50;99.90;;;;;;5081054;28;20493;-68
2022/10/09 05:21:04;;;;;;;5.40;3.35;;;6.50;99.90;;;;;;5077044;28;20044;-69
2022/10/09 05:23:31;;;;;;;4.68;3.00;;;6.50;99.90;;;;;;5076072;28;20076;-69
2022/10/09 05:26:00;;;;;;;5.13;3.13;;;6.40;99.90;;;;;;5078975;28;20547;-68
2022/10/09 05:28:26;;;;;;;5.38;3.10;;;6.70;99.90;;;;;;5083765;28;20437;-68
2022/10/09 05:30:52;;;;;;;3.88;2.97;;;6.40;99.90;;;;;;5078412;28;20087;-69
2022/10/09 05:33:18;;;;;;;4.13;2.95;;;6.40;99.90;;;;;;5084388;28;20051;-69
2022/10/09 05:35:51;;;;;;;4.18;2.90;;;6.40;99.90;;;;;;5082588;28;20070;-69
2022/10/09 05:38:17;;;;;;;4.75;2.58;;;6.50;99.90;;;;;;5077595;28;20179;-69
2022/10/09 05:41:04;;;;;;;7.03;3.30;;;6.40;99.90;;;;;;5070995;28;20053;-69
2022/10/09 05:43:33;;;;;;;4.32;2.83;;;6.50;99.90;;;;;;5060328;28;20048;-68
2022/10/09 05:46:10;;;;;;;5.43;3.17;;;6.80;99.90;;;;;;5089608;28;20044;-68
2022/10/09 05:48:38;;;;;;;4.30;3.40;;;6.50;99.90;;;;;;5060808;28;20048;-68
2022/10/09 05:51:16;;;;;;;6.57;3.40;;;6.40;99.90;;;;;;5069374;28;20056;-69
2022/10/09 05:53:43;;;;;;;3.85;2.70;;;6.40;99.90;;;;;;5069387;28;20428;-69
2022/10/09 05:56:30;;;;;;;4.38;3.22;;;6.40;99.90;;;;;;5069537;28;20389;-68
2022/10/09 05:58:59;;;;;;;4.78;2.90;;;6.30;99.90;;;;;;5061413;28;20062;-68
2022/10/09 06:01:30;;;;;;;5.25;3.30;;;6.40;99.90;;;;;;5069490;28;20556;-68
2022/10/09 06:03:58;;;;;;;3.80;2.95;;;6.30;99.90;;;;;;5075253;28;20064;-68
2022/10/09 06:06:26;;;;;;;4.28;2.80;;;6.30;99.90;;;;;;5086487;28;20135;-68
2022/10/09 06:08:52;;;;;;;3.92;2.45;;;6.30;99.90;;;;;;5074836;28;20055;-68
2022/10/09 06:11:27;;;;;;;4.00;1.90;;;6.20;99.90;;;;;;5089571;28;20167;-68
2022/10/09 06:13:57;;;;;;;4.95;3.65;;;6.20;99.90;;;;;;5076030;28;20062;-68
2022/10/09 06:16:25;;;;;;;3.63;2.65;;;6.20;99.90;;;;;;5077226;28;20059;-70
2022/10/09 06:18:52;;;;;;;2.53;2.10;;;6.20;99.90;;;;;;5099228;28;20088;-68
2022/10/09 06:21:18;;;;;;;3.90;2.20;;;6.10;99.90;;;;;;5074530;28;20055;-68
2022/10/09 06:23:48;;;;;;;3.67;2.33;;;6.10;99.90;;;;;;5072518;28;20131;-69
2022/10/09 06:26:13;;;;;;;4.38;2.10;;;6.10;99.90;;;;;;5078265;28;20044;-68
2022/10/09 06:28:39;;;;;;;3.13;2.22;;;6.30;99.90;;;;;;5093109;28;20373;-68
2022/10/09 06:31:11;;;;;;;4.10;1.90;;;6.10;99.90;;;;;;5082659;28;20052;-68
2022/10/09 06:33:39;;;;;;;4.50;1.70;;;6.10;99.90;;;;;;5052762;28;20486;-68
2022/10/09 06:36:10;;;;;;;2.28;1.70;;;6.10;99.90;;;;;;5073443;28;20068;-69
2022/10/09 06:38:37;;;;;;;3.35;2.08;;;6.10;99.90;;;;;;5056990;28;20044;-68
2022/10/09 06:41:11;;;;;;;2.67;1.98;;;6.10;99.90;;;;;;5073803;28;20285;-69
2022/10/09 06:43:37;;;;;;;3.97;2.33;;;6.10;99.90;;;;;;5077603;28;20049;-69
2022/10/09 06:46:07;;;;;;;4.35;2.90;;;6.20;99.90;;;;;;5072605;28;20082;-69
2022/10/09 06:48:34;;;;;;;4.43;3.20;;;6.30;99.90;;;;;;5106360;28;20052;-68
2022/10/09 06:51:09;;;;;;;3.05;2.30;;;6.40;99.90;;;;;;5073820;28;20048;-69
2022/10/09 06:53:43;;;;;;;3.05;2.33;;;6.40;99.90;;;;;;5073636;28;20052;-69
2022/10/09 06:56:10;;;;;;;2.22;1.98;;;6.50;99.90;;;;;;5069596;28;20048;-68
2022/10/09 06:58:37;;;;;;;3.60;2.53;;;6.50;99.90;;;;;;5081437;28;20116;-70
2022/10/09 07:01:17;;;;;;;6.70;2.50;;;6.60;99.90;;;;;;5078466;28;20162;-69
2022/10/09 07:03:45;;;;;;;4.25;2.42;;;6.70;99.90;;;;;;5069627;28;20076;-69
2022/10/09 07:06:19;;;;;;;4.22;2.80;;;6.70;99.90;;;;;;5073153;28;20618;-62
2022/10/09 07:08:54;;;;;;;4.05;2.50;;;6.80;99.90;;;;;;5089251;28;20040;-62
2022/10/09 07:11:31;;;;;;;4.32;2.80;;;7.20;99.90;;;;;;5081997;28;20119;-62
2022/10/09 07:13:59;;;;;;;4.28;2.65;;;7.00;99.90;;;;;;5071682;28;20037;-63
2022/10/09 07:16:34;;;;;;;5.82;3.20;;;7.10;99.90;;;;;;5072836;28;20036;-63
2022/10/09 07:19:02;;;;;;;4.38;2.95;;;7.20;99.90;;;;;;5068352;28;20047;-62
2022/10/09 07:21:28;;;;;;;5.40;3.85;;;7.20;99.90;;;;;;5085162;28;20041;-61
2022/10/09 07:23:54;;;;;;;7.20;3.97;;;7.40;99.90;;;;;;5074173;28;20051;-61
2022/10/09 07:26:24;;;;;;;5.35;3.45;;;7.60;99.90;;;;;;5083908;28;20040;-62
2022/10/09 07:28:51;;;;;;;7.18;4.68;;;7.60;99.90;;;;;;5072648;28;20106;-62
2022/10/09 07:31:17;;;;;;;7.60;5.05;;;7.80;99.90;;;;;;5076327;28;20055;-61
2022/10/09 07:33:46;;;;;;;7.10;4.93;;;7.90;99.90;;;;;;5081387;28;20506;-62
2022/10/09 07:36:12;;;;;;;8.73;5.20;;;8.10;99.90;;;;;;5074837;28;20055;-63
2022/10/09 07:38:37;;;;;;;8.85;5.38;;;8.20;99.90;;;;;;5072861;28;20052;-62
2022/10/09 07:41:06;;;;;;;7.05;5.40;;;8.40;99.90;;;;;;5072864;28;20052;-62
2022/10/09 07:43:34;;;;;;;8.00;5.60;;;8.50;99.90;;;;;;5065720;28;20040;-63
2022/10/09 07:46:01;;;;;;;8.98;5.47;;;8.60;99.90;;;;;;5075540;28;20052;-63
2022/10/09 07:48:27;;;;;;;7.32;5.60;;;8.70;99.90;;;;;;5069098;28;20048;-63
2022/10/09 07:50:53;;;;;;;8.25;5.90;;;8.90;99.90;;;;;;5075345;28;20048;-63
2022/10/09 07:53:19;;;;;;;8.00;6.05;;;9.00;99.90;;;;;;5088064;28;20040;-62
2022/10/09 07:55:46;;;;;;;8.10;6.28;;;9.00;99.90;;;;;;5072802;28;20040;-63
2022/10/09 07:58:16;;;;;;;8.40;6.05;;;9.10;99.90;;;;;;5070509;28;20137;-62
2022/10/09 08:00:43;;;;;;;9.05;6.43;;;9.20;99.90;;;;;;5074443;28;20051;-62
2022/10/09 08:03:09;;;;;;;10.10;6.10;;;9.30;99.90;;;;;;5075042;28;20080;-63
2022/10/09 08:05:35;;;;;;;8.95;6.28;;;9.40;99.90;;;;;;5070744;28;20040;-65
2022/10/09 08:08:01;;;;;;;8.00;5.38;;;9.50;99.90;;;;;;5070356;28;20051;-64
2022/10/09 08:10:30;;;;;;;8.05;5.72;;;9.60;99.90;;;;;;5072431;28;20055;-63
2022/10/09 08:12:56;;;;;;;8.50;5.72;;;9.70;99.90;;;;;;5071231;28;20408;-63
2022/10/09 08:15:22;;;;;;;8.15;5.75;;;9.80;99.90;;;;;;5065044;28;20489;-64
2022/10/09 08:17:47;;;;;;;10.30;5.53;;;9.90;99.90;;;;;;5071611;28;20055;-63
2022/10/09 08:20:13;;;;;;;6.63;5.50;;;10.00;99.90;;;;;;5070662;28;20052;-64
2022/10/09 08:22:39;;;;;;;8.15;4.78;;;10.10;99.90;;;;;;5072031;28;20049;-63
2022/10/09 08:25:05;;;;;;;8.18;5.85;;;10.20;99.90;;;;;;5074985;28;20040;-63
2022/10/09 08:27:31;;;;;;;9.20;5.13;;;10.30;99.90;;;;;;5090400;28;20051;-65
2022/10/09 08:29:56;;;;;;;8.63;5.10;;;10.50;99.90;;;;;;5092521;28;20403;-63
2022/10/09 08:32:22;;;;;;;10.00;5.47;;;10.60;99.90;;;;;;5092123;28;20136;-63
2022/10/09 08:34:48;;;;;;;6.00;4.32;;;10.80;99.90;;;;;;5091158;28;20365;-64
2022/10/09 08:37:13;;;;;;;7.95;4.85;;;10.90;99.90;;;;;;5091132;28;20055;-63
2022/10/09 08:39:39;;;;;;;7.88;4.90;;;11.00;99.90;;;;;;5073692;28;20379;-64
2022/10/09 08:42:05;;;;;;;7.43;4.65;;;11.10;99.90;;;;;;5071472;28;20445;-64
2022/10/09 08:44:39;;;;;;;7.68;4.88;;;11.20;99.90;;;;;;5070086;28;20402;-63
2022/10/09 08:47:39;;;;;;;7.07;4.53;;;11.30;99.90;;;;;;5070110;28;20048;-64
2022/10/09 08:50:40;;;;;;;7.53;3.95;;;11.50;99.90;;;;;;5071201;28;20048;-63
2022/10/09 08:53:27;;;;;;;8.43;4.70;;;11.50;99.90;;;;;;5068302;28;20060;-63
2022/10/09 08:55:59;;;;;;;6.57;4.20;;;11.60;99.90;;;;;;5070583;28;20048;-63
2022/10/09 08:58:33;;;;;;;7.10;4.20;;;11.60;99.90;;;;;;5070314;28;20372;-63
2022/10/09 09:01:04;;;;;;;7.25;4.00;;;11.80;99.90;;;;;;5070916;28;20110;-62
2022/10/09 09:03:55;;;;;;;6.80;4.28;;;11.80;99.90;;;;;;5070626;28;20056;-62
2022/10/09 09:06:45;;;;;;;5.22;3.38;;;12.00;99.90;;;;;;5070497;28;20131;-62
2022/10/09 09:09:36;;;;;;;7.63;3.40;;;12.10;99.90;;;;;;5070120;28;20194;-63
2022/10/09 09:12:17;;;;;;;4.68;3.15;;;12.20;99.90;;;;;;5070948;28;20045;-64
2022/10/09 09:15:08;;;;;;;7.93;3.47;;;12.30;99.90;;;;;;5070884;28;20051;-62
2022/10/09 09:17:52;;;;;;;8.65;3.50;;;12.40;99.90;;;;;;5080472;28;20044;-63
2022/10/09 09:20:25;;;;;;;5.22;3.25;;;12.50;99.90;;;;;;5089797;28;20388;-63
2022/10/09 09:22:52;;;;;;;5.93;3.47;;;12.60;99.90;;;;;;5091323;28;20392;-62
2022/10/09 09:25:24;;;;;;;5.32;3.30;;;12.60;99.90;;;;;;5085322;28;20082;-62
2022/10/09 09:27:57;;;;;;;6.65;3.97;;;12.70;99.90;;;;;;5070799;28;20082;-62
2022/10/09 09:30:24;;;;;;;4.90;3.10;;;12.80;99.90;;;;;;5070857;28;20053;-64
2022/10/09 09:33:12;;;;;;;5.25;3.60;;;12.90;99.90;;;;;;5070962;28;20060;-62
2022/10/09 09:36:09;;;;;;;6.10;3.17;;;13.00;99.90;;;;;;5070442;28;20041;-62
2022/10/09 09:38:36;;;;;;;4.63;3.05;;;13.10;99.90;;;;;;5069887;28;20049;-64
2022/10/09 09:41:03;;;;;;;5.93;2.78;;;13.30;99.90;;;;;;5071170;28;20485;-62
2022/10/09 09:43:29;;;;;;;5.25;2.70;;;13.50;99.90;;;;;;5070667;28;20059;-62
2022/10/09 09:45:58;;;;;;;4.50;2.30;;;13.80;99.90;;;;;;5069993;28;20048;-62
2022/10/09 09:48:37;;;;;;;4.90;2.70;;;13.80;99.90;;;;;;5070843;28;20048;-62
2022/10/09 09:51:15;;;;;;;5.18;2.53;;;13.80;99.90;;;;;;5070409;28;20106;-62
2022/10/09 09:53:44;;;;;;;6.15;2.30;;;13.80;99.90;;;;;;5070814;28;20431;-62
2022/10/09 09:56:10;;;;;;;4.00;2.30;;;13.80;99.90;;;;;;5069889;28;20045;-63
2022/10/09 09:58:38;;;;;;;5.40;2.22;;;14.00;99.90;;;;;;5070801;28;20050;-63
2022/10/09 10:01:05;;;;;;;7.57;2.58;;;14.00;99.90;;;;;;5052863;28;20048;-63
2022/10/09 10:03:34;;;;;;;5.70;2.63;;;14.00;99.90;;;;;;5068648;28;20052;-66
2022/10/09 10:06:00;;;;;;;5.43;2.42;;;14.00;99.90;;;;;;5070387;28;20373;-64
2022/10/09 10:08:31;;;;;;;5.78;2.30;;;14.10;99.90;;;;;;5069370;28;20056;-63
2022/10/09 10:11:05;;;;;;;5.97;2.35;;;14.10;99.90;;;;;;5070179;28;20049;-64
2022/10/09 10:13:37;;;;;;;4.50;2.22;;;14.20;99.90;;;;;;5069382;28;20060;-64
2022/10/09 10:16:05;;;;;;;4.20;1.88;;;14.20;99.90;;;;;;5069133;28;20114;-64
2022/10/09 10:18:38;;;;;;;5.95;2.33;;;14.30;99.90;;;;;;5087556;28;20058;-64
2022/10/09 10:21:09;;;;;;;5.75;1.85;;;14.20;99.90;;;;;;5090401;28;20108;-63
2022/10/09 10:23:37;;;;;;;4.57;1.77;;;14.20;99.90;;;;;;5090835;28;20055;-63
2022/10/09 10:26:16;;;;;;;3.88;1.90;;;14.20;99.90;;;;;;5078332;28;20052;-63
2022/10/09 10:28:52;;;;;;;3.92;1.85;;;14.30;99.90;;;;;;5068890;28;20520;-63
2022/10/09 10:31:40;;;;;;;4.53;1.88;;;14.40;99.90;;;;;;5070298;28;20409;-63
2022/10/09 10:34:16;;;;;;;4.82;2.25;;;14.40;99.90;;;;;;5069818;28;20102;-65
2022/10/09 10:36:42;;;;;;;4.53;2.13;;;14.30;99.90;;;;;;5070105;28;20067;-62
2022/10/09 10:39:17;;;;;;;6.50;1.98;;;14.30;99.90;;;;;;5069849;28;20044;-62
2022/10/09 10:41:48;;;;;;;6.78;2.33;;;14.40;99.90;;;;;;5070053;28;20059;-63
2022/10/09 10:44:26;;;;;;;4.45;1.65;;;14.30;99.90;;;;;;5070005;28;20048;-62
2022/10/09 10:47:05;;;;;;;3.58;1.70;;;14.30;99.90;;;;;;5068545;28;20040;-62
2022/10/09 10:49:31;;;;;;;3.47;1.60;;;14.40;99.90;;;;;;5069988;28;20425;-63
2022/10/09 10:52:28;;;;;;;3.75;1.50;;;14.40;99.90;;;;;;5073240;28;20122;-63
2022/10/09 10:55:11;;;;;;;3.03;1.50;;;14.60;99.90;;;;;;5093616;28;20044;-63
2022/10/09 10:57:49;;;;;;;3.92;1.30;;;14.60;99.90;;;;;;5093690;28;20421;-62
2022/10/09 11:00:16;;;;;;;3.55;1.40;;;14.60;99.90;;;;;;5093968;28;20093;-62
2022/10/09 11:03:05;;;;;;;4.40;1.40;;;14.60;99.90;;;;;;5094125;28;20048;-61
2022/10/09 11:05:46;;;;;;;3.47;1.50;;;14.50;99.90;;;;;;5093320;28;20044;-61
2022/10/09 11:08:20;;;;;;;2.78;1.00;;;14.50;99.90;;;;;;5093957;28;20101;-62
2022/10/09 11:11:16;;;;;;;4.35;1.65;;;14.40;99.90;;;;;;5093954;28;20048;-62
2022/10/09 11:13:45;;;;;;;2.83;1.00;;;14.40;99.90;;;;;;5093940;28;20083;-62
2022/10/09 11:16:20;;;;;;;3.03;1.30;;;14.40;99.90;;;;;;5073707;28;20048;-62
2022/10/09 11:19:30;;;;;;;4.68;1.70;;;14.30;99.90;;;;;;5073475;28;20045;-62
2022/10/09 11:21:59;;;;;;;5.10;1.63;;;14.30;99.90;;;;;;5073551;28;20102;-62
2022/10/09 11:24:35;;;;;;;3.65;1.77;;;14.30;99.90;;;;;;5073299;28;20228;-62
2022/10/09 11:27:30;;;;;;;3.38;1.27;;;14.40;99.90;;;;;;5072240;28;20052;-62
2022/10/09 11:30:01;;;;;;;3.25;1.30;;;14.50;99.90;;;;;;5073272;28;20090;-62
2022/10/09 11:32:51;;;;;;;4.50;1.17;;;14.50;99.90;;;;;;5072072;28;20101;-61
2022/10/09 11:35:28;;;;;;;3.20;1.20;;;14.60;99.90;;;;;;5072635;28;20054;-62
2022/10/09 11:37:59;;;;;;;4.55;1.75;;;14.60;99.90;;;;;;5072193;28;20455;-62
2022/10/09 11:40:39;;;;;;;3.40;1.50;;;14.60;99.90;;;;;;5073296;28;20049;-62
2022/10/09 11:43:25;;;;;;;3.10;1.60;;;14.70;99.90;;;;;;5072203;28;20404;-61
2022/10/09 11:46:03;;;;;;;4.22;1.48;;;14.70;99.90;;;;;;5073298;28;20051;-62
2022/10/09 11:48:35;;;;;;;4.75;1.38;;;14.60;99.90;;;;;;5073191;28;20140;-62
2022/10/09 11:51:28;;;;;;;2.55;1.23;;;14.60;99.90;;;;;;5073294;28;20052;-63
2022/10/09 11:53:55;;;;;;;2.83;1.10;;;14.70;99.90;;;;;;5073078;28;20059;-63
2022/10/09 11:56:25;;;;;;;2.90;1.27;;;14.60;99.90;;;;;;5072514;28;20055;-62
2022/10/09 11:58:56;;;;;;;4.28;1.42;;;14.60;99.90;;;;;;5071835;28;20619;-63
2022/10/09 12:01:28;;;;;;;2.92;1.05;;;14.60;99.90;;;;;;5071231;28;20106;-62
2022/10/09 12:04:21;;;;;;;4.25;1.45;;;14.60;99.90;;;;;;5072303;28;20063;-63
2022/10/09 12:06:54;;;;;;;2.83;1.23;;;14.70;99.90;;;;;;5072225;28;20063;-62
2022/10/09 12:09:35;;;;;;;3.75;1.30;;;14.60;99.90;;;;;;5072711;28;20053;-62
2022/10/09 12:12:06;;;;;;;4.43;1.20;;;14.70;99.90;;;;;;5072653;28;20044;-62
2022/10/09 12:14:37;;;;;;;2.72;1.38;;;14.80;99.90;;;;;;5071205;28;20063;-62
2022/10/09 12:17:16;;;;;;;3.10;1.35;;;14.90;99.90;;;;;;5077408;28;20048;-62
2022/10/09 12:19:42;;;;;;;4.30;1.50;;;15.00;99.90;;;;;;5092731;28;20425;-62
2022/10/09 12:22:16;;;;;;;3.17;1.20;;;14.90;99.90;;;;;;5092642;28;20396;-62
2022/10/09 12:24:52;;;;;;;3.85;1.30;;;14.90;99.90;;;;;;5091647;28;20108;-62
2022/10/09 12:27:24;;;;;;;3.30;1.30;;;15.00;99.90;;;;;;5072473;28;20101;-62
2022/10/09 12:30:13;;;;;;;2.10;1.10;;;15.00;99.90;;;;;;5072278;28;20588;-62
2022/10/09 12:32:48;;;;;;;6.15;1.60;;;15.20;99.90;;;;;;5065919;28;20061;-62
2022/10/09 12:35:38;;;;;;;3.45;1.42;;;15.20;99.90;;;;;;5072097;28;20044;-62
2022/10/09 12:38:19;;;;;;;4.95;1.75;;;15.10;99.90;;;;;;5066414;28;20560;-62
2022/10/09 12:40:47;;;;;;;5.38;1.52;;;15.00;99.90;;;;;;5070648;28;20094;-62
2022/10/09 12:43:17;;;;;;;3.65;1.17;;;14.90;99.90;;;;;;5071944;28;20093;-62
2022/10/09 12:45:45;;;;;;;4.07;1.30;;;14.90;99.90;;;;;;5071748;28;20045;-62
2022/10/09 12:48:12;;;;;;;4.50;1.45;;;14.80;99.90;;;;;;5071867;28;20148;-62
2022/10/09 12:50:39;;;;;;;3.58;1.30;;;14.70;99.90;;;;;;5071826;28;20080;-62
2022/10/09 12:53:17;;;;;;;4.75;1.50;;;14.70;99.90;;;;;;5070734;28;20105;-62
2022/10/09 12:55:46;;;;;;;4.72;1.50;;;14.70;99.90;;;;;;5070239;28;20437;-63
2022/10/09 12:58:15;;;;;;;3.95;1.40;;;14.70;99.90;;;;;;5071359;28;20168;-62
2022/10/09 13:00:41;;;;;;;3.63;1.40;;;14.70;99.90;;;;;;5071390;28;20052;-63
2022/10/09 13:03:22;;;;;;;3.80;1.70;;;14.70;99.90;;;;;;5071471;28;20056;-62
2022/10/09 13:05:47;;;;;;;2.88;1.50;;;14.70;99.90;;;;;;5071580;28;20052;-62
2022/10/09 13:08:35;;;;;;;4.65;1.65;;;14.70;99.90;;;;;;5071625;28;20408;-62
2022/10/09 13:11:16;;;;;;;3.97;1.70;;;14.70;99.90;;;;;;5071719;28;20374;-62
2022/10/09 13:13:47;;;;;;;3.03;1.35;;;14.70;99.90;;;;;;5070772;28;20361;-62